createdAt,value
2019-02-09T00:01:12.805Z,9.00
2019-02-09T00:03:41.415Z,9.00
2019-02-09T00:06:10.324Z,8.90
2019-02-09T00:08:38.907Z,8.90
2019-02-09T00:11:07.745Z,8.90
2019-02-09T00:13:36.332Z,9.00
2019-02-09T00:16:05.607Z,8.90
2019-02-09T00:18:34.319Z,8.90
2019-02-09T00:21:02.894Z,8.90
2019-02-09T00:23:31.783Z,8.90
2019-02-09T00:26:00.374Z,8.90
2019-02-09T00:28:28.979Z,8.90
2019-02-09T00:30:57.865Z,9.00
2019-02-09T00:33:26.425Z,9.00
2019-02-09T00:35:55.076Z,8.90
2019-02-09T00:38:23.943Z,9.00
2019-02-09T00:40:52.548Z,8.90
2019-02-09T00:43:21.170Z,9.00
2019-02-09T00:45:49.912Z,9.00
2019-02-09T00:48:18.519Z,8.90
2019-02-09T00:50:47.192Z,8.90
2019-02-09T00:53:15.793Z,9.00
2019-02-09T00:55:44.369Z,9.00
2019-02-09T00:58:12.960Z,8.90
2019-02-09T01:00:41.540Z,8.90
2019-02-09T01:03:10.119Z,8.90
2019-02-09T01:05:41.036Z,8.90
2019-02-09T01:08:10.104Z,8.80
2019-02-09T01:10:38.713Z,8.80
2019-02-09T01:13:07.283Z,8.70
2019-02-09T01:15:35.905Z,8.70
2019-02-09T01:18:04.507Z,8.70
2019-02-09T01:20:33.095Z,8.70
2019-02-09T01:23:01.715Z,8.60
2019-02-09T01:25:30.607Z,8.50
2019-02-09T01:27:59.213Z,8.60
2019-02-09T01:30:27.780Z,8.50
2019-02-09T01:32:56.676Z,8.50
2019-02-09T01:35:25.258Z,8.50
2019-02-09T01:37:53.866Z,8.50
2019-02-09T01:40:24.039Z,8.50
2019-02-09T01:42:52.640Z,8.40
2019-02-09T01:45:23.352Z,8.40
2019-02-09T01:47:51.964Z,8.30
2019-02-09T01:50:20.604Z,8.30
2019-02-09T01:52:49.519Z,8.20
2019-02-09T01:55:18.124Z,8.20
2019-02-09T01:57:46.840Z,8.20
2019-02-09T02:00:17.459Z,8.20
2019-02-09T02:02:46.086Z,8.10
2019-02-09T02:05:14.812Z,8.10
2019-02-09T02:07:43.397Z,8.20
2019-02-09T02:10:16.235Z,8.10
2019-02-09T02:12:44.851Z,8.10
2019-02-09T02:15:15.547Z,8.10
2019-02-09T02:17:44.192Z,8.10
2019-02-09T02:20:17.932Z,8.10
2019-02-09T02:22:46.615Z,8.20
2019-02-09T02:25:16.314Z,8.20
2019-02-09T02:27:44.900Z,8.20
2019-02-09T02:30:22.396Z,8.20
2019-02-09T02:32:48.525Z,8.20
2019-02-09T02:35:17.112Z,8.30
2019-02-09T02:37:45.704Z,8.30
2019-02-09T02:40:14.312Z,8.20
2019-02-09T02:42:42.995Z,8.20
2019-02-09T02:45:13.399Z,8.20
2019-02-09T02:47:41.986Z,8.20
2019-02-09T02:50:12.799Z,8.20
2019-02-09T02:52:41.393Z,8.20
2019-02-09T02:55:11.554Z,8.20
2019-02-09T02:57:40.130Z,8.20
2019-02-09T03:00:11.229Z,8.20
2019-02-09T03:02:39.808Z,8.20
2019-02-09T03:05:10.856Z,8.30
2019-02-09T03:07:39.453Z,8.30
2019-02-09T03:10:27.351Z,8.30
2019-02-09T03:12:55.945Z,8.40
2019-02-09T03:15:28.659Z,8.40
2019-02-09T03:17:57.249Z,8.40
2019-02-09T03:20:25.917Z,8.40
2019-02-09T03:22:54.479Z,8.40
2019-02-09T03:25:30.887Z,8.40
2019-02-09T03:27:59.476Z,8.50
2019-02-09T03:30:28.078Z,8.50
2019-02-09T03:32:56.725Z,8.40
2019-02-09T03:35:25.302Z,8.40
2019-02-09T03:37:53.904Z,8.40
2019-02-09T03:40:23.796Z,8.30
2019-02-09T03:42:52.348Z,8.40
2019-02-09T03:45:25.686Z,8.40
2019-02-09T03:47:54.332Z,8.30
2019-02-09T03:50:23.521Z,8.40
2019-02-09T03:52:52.179Z,8.40
2019-02-09T03:55:20.801Z,8.30
2019-02-09T03:57:49.568Z,8.30
2019-02-09T04:00:19.826Z,8.20
2019-02-09T04:02:48.658Z,8.20
2019-02-09T04:05:17.263Z,8.10
2019-02-09T04:07:45.868Z,8.10
2019-02-09T04:10:16.034Z,8.10
2019-02-09T04:12:44.629Z,8.10
2019-02-09T04:15:14.457Z,8.10
2019-02-09T04:17:43.049Z,8.10
2019-02-09T04:20:12.939Z,8.10
2019-02-09T04:22:41.513Z,8.20
2019-02-09T04:25:11.269Z,8.10
2019-02-09T04:27:39.856Z,8.20
2019-02-09T04:30:17.937Z,8.20
2019-02-09T04:32:46.617Z,8.20
2019-02-09T04:35:15.183Z,8.20
2019-02-09T04:37:43.783Z,8.20
2019-02-09T04:40:14.351Z,8.10
2019-02-09T04:42:42.923Z,8.20
2019-02-09T04:45:12.138Z,8.20
2019-02-09T04:47:40.696Z,8.10
2019-02-09T04:50:09.935Z,8.10
2019-02-09T04:52:38.503Z,8.10
2019-02-09T04:55:09.456Z,8.10
2019-02-09T04:57:40.880Z,8.10
2019-02-09T05:00:11.355Z,8.10
2019-02-09T05:02:39.943Z,8.10
2019-02-09T05:05:08.931Z,8.10
2019-02-09T05:07:37.596Z,8.10
2019-02-09T05:10:06.923Z,8.10
2019-02-09T05:12:35.501Z,8.10
2019-02-09T05:15:04.905Z,8.10
2019-02-09T05:17:33.569Z,8.10
2019-02-09T05:20:02.166Z,8.00
2019-02-09T05:22:30.747Z,8.00
2019-02-09T05:24:59.331Z,8.00
2019-02-09T05:27:27.959Z,8.00
2019-02-09T05:29:56.528Z,8.00
2019-02-09T05:32:25.094Z,8.00
2019-02-09T05:34:53.671Z,8.00
2019-02-09T05:37:22.243Z,8.00
2019-02-09T05:39:50.840Z,8.00
2019-02-09T05:42:19.428Z,8.10
2019-02-09T05:44:48.204Z,8.10
2019-02-09T05:47:16.809Z,8.10
2019-02-09T05:49:45.380Z,8.10
2019-02-09T05:52:13.960Z,8.00
2019-02-09T05:54:42.533Z,7.90
2019-02-09T05:57:11.099Z,7.90
2019-02-09T05:59:39.687Z,7.90
2019-02-09T06:02:08.271Z,7.90
2019-02-09T06:04:36.954Z,7.90
2019-02-09T06:07:05.544Z,7.90
2019-02-09T06:09:34.141Z,7.80
2019-02-09T06:12:02.745Z,7.80
2019-02-09T06:14:31.403Z,7.80
2019-02-09T06:17:00.002Z,7.80
2019-02-09T06:19:28.594Z,7.90
2019-02-09T06:21:57.244Z,8.00
2019-02-09T06:24:25.819Z,7.90
2019-02-09T06:26:54.401Z,7.90
2019-02-09T06:29:22.983Z,7.90
2019-02-09T06:31:51.951Z,8.00
2019-02-09T06:34:20.833Z,8.00
2019-02-09T06:36:49.560Z,8.00
2019-02-09T06:39:18.283Z,8.00
2019-02-09T06:41:47.713Z,8.00
2019-02-09T06:44:16.681Z,7.90
2019-02-09T06:46:45.268Z,7.90
2019-02-09T06:49:13.844Z,7.90
2019-02-09T06:51:42.420Z,8.00
2019-02-09T06:54:10.987Z,8.00
2019-02-09T06:56:39.549Z,8.00
2019-02-09T06:59:08.124Z,7.90
2019-02-09T07:01:36.754Z,7.90
2019-02-09T07:04:05.436Z,8.00
2019-02-09T07:06:34.060Z,8.10
2019-02-09T07:09:03.159Z,8.00
2019-02-09T07:11:31.746Z,8.10
2019-02-09T07:14:00.323Z,8.10
2019-02-09T07:16:28.945Z,8.10
2019-02-09T07:18:57.552Z,8.00
2019-02-09T07:21:26.156Z,8.10
2019-02-09T07:23:54.796Z,8.00
2019-02-09T07:26:23.664Z,8.10
2019-02-09T07:28:52.279Z,8.10
2019-02-09T07:31:20.853Z,8.00
2019-02-09T07:33:49.641Z,8.10
2019-02-09T07:36:18.210Z,8.10
2019-02-09T07:38:46.893Z,8.10
2019-02-09T07:41:15.471Z,8.10
2019-02-09T07:43:44.050Z,8.10
2019-02-09T07:46:12.626Z,8.10
2019-02-09T07:48:41.236Z,8.10
2019-02-09T07:51:09.852Z,8.20
2019-02-09T07:53:38.459Z,8.10
2019-02-09T07:56:07.045Z,8.10
2019-02-09T07:58:35.625Z,8.10
2019-02-09T08:01:05.824Z,8.20
2019-02-09T08:03:34.625Z,8.20
2019-02-09T08:06:03.209Z,8.20
2019-02-09T08:08:51.125Z,8.20
2019-02-09T08:11:19.725Z,8.30
2019-02-09T08:13:51.375Z,8.30
2019-02-09T08:16:19.955Z,8.30
2019-02-09T08:18:51.575Z,8.30
2019-02-09T08:21:20.467Z,8.30
2019-02-09T08:23:49.389Z,8.30
2019-02-09T08:26:18.679Z,8.30
2019-02-09T08:28:48.660Z,8.30
2019-02-09T08:31:17.248Z,8.30
2019-02-09T08:33:45.836Z,8.40
2019-02-09T08:36:14.404Z,8.40
2019-02-09T08:38:43.362Z,8.50
2019-02-09T08:41:11.925Z,8.60
2019-02-09T08:43:40.542Z,8.60
2019-02-09T08:46:09.167Z,8.60
2019-02-09T08:48:38.014Z,8.70
2019-02-09T08:51:09.728Z,8.70
2019-02-09T08:53:38.321Z,8.70
2019-02-09T08:56:06.896Z,8.80
2019-02-09T08:58:35.463Z,8.90
2019-02-09T09:01:04.540Z,8.90
2019-02-09T09:03:33.173Z,8.90
2019-02-09T09:06:01.745Z,9.00
2019-02-09T09:08:30.352Z,9.00
2019-02-09T09:10:58.937Z,9.10
2019-02-09T09:13:27.517Z,9.10
2019-02-09T09:15:57.177Z,9.10
2019-02-09T09:18:25.755Z,9.20
2019-02-09T09:20:56.692Z,9.30
2019-02-09T09:23:25.275Z,9.30
2019-02-09T09:25:53.878Z,9.30
2019-02-09T09:28:22.479Z,9.40
2019-02-09T09:30:51.096Z,9.50
2019-02-09T09:33:19.701Z,9.50
2019-02-09T09:35:51.376Z,9.60
2019-02-09T09:38:19.973Z,9.60
2019-02-09T09:40:48.751Z,9.60
2019-02-09T09:43:17.359Z,9.50
2019-02-09T09:45:46.150Z,9.50
2019-02-09T09:48:16.252Z,9.50
2019-02-09T09:50:44.879Z,9.50
2019-02-09T09:53:13.536Z,9.40
2019-02-09T09:55:42.273Z,9.60
2019-02-09T09:58:10.859Z,9.60
2019-02-09T10:00:39.447Z,9.60
2019-02-09T10:03:08.401Z,9.60
2019-02-09T10:05:37.008Z,9.50
2019-02-09T10:08:05.687Z,9.40
2019-02-09T10:10:34.653Z,9.40
2019-02-09T10:13:03.266Z,9.50
2019-02-09T10:15:31.979Z,9.50
2019-02-09T10:18:00.841Z,9.60
2019-02-09T10:20:29.460Z,9.70
2019-02-09T10:22:58.027Z,9.70
2019-02-09T10:25:26.620Z,9.70
2019-02-09T10:27:55.235Z,9.70
2019-02-09T10:30:25.570Z,9.70
2019-02-09T10:32:54.148Z,9.70
2019-02-09T10:35:23.426Z,9.70
2019-02-09T10:37:52.003Z,9.70
2019-02-09T10:40:22.639Z,9.80
2019-02-09T10:42:51.916Z,9.80
2019-02-09T10:45:22.732Z,9.80
2019-02-09T10:47:51.826Z,9.80
2019-02-09T10:50:26.230Z,9.80
2019-02-09T10:52:55.219Z,9.80
2019-02-09T10:55:24.106Z,9.90
2019-02-09T10:57:52.695Z,9.90
2019-02-09T11:00:24.709Z,9.90
2019-02-09T11:02:53.306Z,9.90
2019-02-09T11:05:21.957Z,9.90
2019-02-09T11:07:50.629Z,9.90
2019-02-09T11:10:19.396Z,10.00
2019-02-09T11:12:49.634Z,10.00
2019-02-09T11:15:19.152Z,10.10
2019-02-09T11:17:47.927Z,10.10
2019-02-09T11:20:18.263Z,10.10
2019-02-09T11:22:47.902Z,10.10
2019-02-09T11:25:17.423Z,10.20
2019-02-09T11:27:47.157Z,10.20
2019-02-09T11:30:18.346Z,10.20
2019-02-09T11:32:49.961Z,10.20
2019-02-09T11:35:18.732Z,10.20
2019-02-09T11:37:47.471Z,10.10
2019-02-09T11:40:17.483Z,10.10
2019-02-09T11:42:47.417Z,10.10
2019-02-09T11:45:18.583Z,10.10
2019-02-09T11:47:48.849Z,10.00
2019-02-09T11:50:17.496Z,10.10
2019-02-09T11:52:46.192Z,10.10
2019-02-09T11:55:15.953Z,10.10
2019-02-09T11:57:44.739Z,10.10
2019-02-09T12:00:24.757Z,10.10
2019-02-09T12:02:53.412Z,10.10
2019-02-09T12:05:22.019Z,10.20
2019-02-09T12:07:50.694Z,10.20
2019-02-09T12:10:19.879Z,10.10
2019-02-09T12:12:48.712Z,10.20
2019-02-09T12:15:23.541Z,10.20
2019-02-09T12:17:53.026Z,10.20
2019-02-09T12:20:22.294Z,10.20
2019-02-09T12:22:51.034Z,10.20
2019-02-09T12:25:21.971Z,10.20
2019-02-09T12:27:50.625Z,10.20
2019-02-09T12:30:21.512Z,10.30
2019-02-09T12:32:50.312Z,10.30
2019-02-09T12:35:19.033Z,10.30
2019-02-09T12:37:47.843Z,10.30
2019-02-09T12:40:21.200Z,10.30
2019-02-09T12:42:50.439Z,10.30
2019-02-09T12:45:19.900Z,10.30
2019-02-09T12:47:51.604Z,10.30
2019-02-09T12:50:20.460Z,10.10
2019-02-09T12:52:49.352Z,10.10
2019-02-09T12:55:18.032Z,10.00
2019-02-09T12:57:48.912Z,10.00
2019-02-09T13:00:20.265Z,10.00
2019-02-09T13:02:51.328Z,9.90
2019-02-09T13:05:19.945Z,9.90
2019-02-09T13:07:49.052Z,9.80
2019-02-09T13:10:17.805Z,9.80
2019-02-09T13:12:46.558Z,9.80
2019-02-09T13:15:17.861Z,9.80
2019-02-09T13:17:46.623Z,9.80
2019-02-09T13:20:17.498Z,9.70
2019-02-09T13:22:47.478Z,9.70
2019-02-09T13:25:16.120Z,9.70
2019-02-09T13:27:44.703Z,9.70
2019-02-09T13:30:16.684Z,9.70
2019-02-09T13:32:45.552Z,9.70
2019-02-09T13:35:14.161Z,9.70
2019-02-09T13:37:42.740Z,9.70
2019-02-09T13:40:12.616Z,9.70
2019-02-09T13:42:41.268Z,9.60
2019-02-09T13:45:17.144Z,9.70
2019-02-09T13:47:45.785Z,9.70
2019-02-09T13:50:14.605Z,9.60
2019-02-09T13:52:43.190Z,9.60
2019-02-09T13:55:11.824Z,9.70
2019-02-09T13:57:40.747Z,9.60
2019-02-09T14:00:12.992Z,9.70
2019-02-09T14:02:41.615Z,9.60
2019-02-09T14:05:10.417Z,9.70
2019-02-09T14:07:39.021Z,9.60
2019-02-09T14:10:08.667Z,9.70
2019-02-09T14:12:37.272Z,9.70
2019-02-09T14:15:07.379Z,9.70
2019-02-09T14:17:35.952Z,9.70
2019-02-09T14:20:05.075Z,9.70
2019-02-09T14:22:33.733Z,9.70
2019-02-09T14:25:02.320Z,9.60
2019-02-09T14:27:30.879Z,9.70
2019-02-09T14:29:59.477Z,9.70
2019-02-09T14:32:28.117Z,9.80
2019-02-09T14:34:57.161Z,9.90
2019-02-09T14:37:26.048Z,10.00
2019-02-09T14:39:54.615Z,10.10
2019-02-09T14:42:23.211Z,10.10
2019-02-09T14:44:52.129Z,10.10
2019-02-09T14:47:20.687Z,10.10
2019-02-09T14:49:49.569Z,10.00
2019-02-09T14:52:18.177Z,9.80
2019-02-09T14:54:58.920Z,9.80
2019-02-09T14:57:27.509Z,9.70
2019-02-09T14:59:56.075Z,9.60
2019-02-09T15:02:24.663Z,9.50
2019-02-09T15:04:53.267Z,9.50
2019-02-09T15:07:21.848Z,9.40
2019-02-09T15:09:50.429Z,9.40
2019-02-09T15:12:19.040Z,9.40
2019-02-09T15:14:50.852Z,9.40
2019-02-09T15:17:19.454Z,9.40
2019-02-09T15:19:48.294Z,9.50
2019-02-09T15:22:16.893Z,9.50
2019-02-09T15:24:45.488Z,9.50
2019-02-09T15:27:15.378Z,9.50
2019-02-09T15:29:43.983Z,9.60
2019-02-09T15:32:12.613Z,9.50
2019-02-09T15:34:41.214Z,9.50
2019-02-09T15:37:09.839Z,9.50
2019-02-09T15:39:38.438Z,9.40
2019-02-09T15:42:08.500Z,9.40
2019-02-09T15:44:37.067Z,9.30
2019-02-09T15:47:05.676Z,9.30
2019-02-09T15:49:34.261Z,9.30
2019-02-09T15:52:02.846Z,9.30
2019-02-09T15:54:31.428Z,9.30
2019-02-09T15:57:00.027Z,9.20
2019-02-09T15:59:28.624Z,9.20
2019-02-09T16:02:09.113Z,9.10
2019-02-09T16:04:37.699Z,9.10
2019-02-09T16:07:06.328Z,9.10
2019-02-09T16:09:34.884Z,9.10
2019-02-09T16:12:03.464Z,9.00
2019-02-09T16:14:33.313Z,9.00
2019-02-09T16:17:01.890Z,9.00
2019-02-09T16:19:30.465Z,9.00
2019-02-09T16:21:59.047Z,9.10
2019-02-09T16:24:27.623Z,9.10
2019-02-09T16:26:56.200Z,9.10
2019-02-09T16:29:24.792Z,9.10
2019-02-09T16:31:53.359Z,9.10
2019-02-09T16:34:25.484Z,9.10
2019-02-09T16:36:52.235Z,9.10
2019-02-09T16:39:20.831Z,9.10
2019-02-09T16:41:49.554Z,9.10
2019-02-09T16:44:18.231Z,9.10
2019-02-09T16:46:46.892Z,9.00
2019-02-09T16:49:34.825Z,9.10
2019-02-09T16:52:03.428Z,9.10
2019-02-09T16:54:32.087Z,9.00
2019-02-09T16:57:00.670Z,9.00
2019-02-09T16:59:29.283Z,9.00
2019-02-09T17:01:57.891Z,9.10
2019-02-09T17:04:33.125Z,9.10
2019-02-09T17:06:56.766Z,9.10
2019-02-09T17:09:25.409Z,9.00
2019-02-09T17:11:54.017Z,9.00
2019-02-09T17:14:22.608Z,9.00
2019-02-09T17:16:51.189Z,9.00
2019-02-09T17:19:19.775Z,9.00
2019-02-09T17:21:50.523Z,9.00
2019-02-09T17:24:19.189Z,9.00
2019-02-09T17:26:48.009Z,9.00
2019-02-09T17:29:16.581Z,9.00
2019-02-09T17:31:45.165Z,9.00
2019-02-09T17:34:13.736Z,9.00
2019-02-09T17:36:42.387Z,8.90
2019-02-09T17:39:10.980Z,8.90
2019-02-09T17:41:39.559Z,8.90
2019-02-09T17:44:08.673Z,8.90
2019-02-09T17:46:49.652Z,9.00
2019-02-09T17:49:18.236Z,8.90
2019-02-09T17:51:47.070Z,8.90
2019-02-09T17:54:15.771Z,9.00
2019-02-09T17:56:44.614Z,8.90
2019-02-09T17:59:13.185Z,9.00
2019-02-09T18:01:41.752Z,9.00
2019-02-09T18:04:10.460Z,9.00
2019-02-09T18:06:39.091Z,9.00
2019-02-09T18:09:08.014Z,8.90
2019-02-09T18:11:36.596Z,9.00
2019-02-09T18:14:05.695Z,9.00
2019-02-09T18:16:34.303Z,9.00
2019-02-09T18:19:02.872Z,9.00
2019-02-09T18:21:31.461Z,9.10
2019-02-09T18:24:00.015Z,9.10
2019-02-09T18:26:28.587Z,9.20
2019-02-09T18:28:57.173Z,9.20
2019-02-09T18:31:25.768Z,9.30
2019-02-09T18:33:54.354Z,9.30
2019-02-09T18:36:23.009Z,9.20
2019-02-09T18:38:51.604Z,9.30
2019-02-09T18:41:20.192Z,9.30
2019-02-09T18:43:48.919Z,9.30
2019-02-09T18:46:17.509Z,9.30
2019-02-09T18:48:46.097Z,9.30
2019-02-09T18:51:14.761Z,9.40
2019-02-09T18:53:43.597Z,9.30
2019-02-09T18:56:12.326Z,9.30
2019-02-09T18:58:40.952Z,9.30
2019-02-09T19:01:09.813Z,9.30
2019-02-09T19:03:38.412Z,9.30
2019-02-09T19:06:07.043Z,9.20
2019-02-09T19:08:36.656Z,9.20
2019-02-09T19:11:05.416Z,9.20
2019-02-09T19:13:34.359Z,9.20
2019-02-09T19:16:03.020Z,9.20
2019-02-09T19:18:34.328Z,9.20
2019-02-09T19:21:03.344Z,9.20
2019-02-09T19:23:31.980Z,9.20
2019-02-09T19:26:00.534Z,9.20
2019-02-09T19:28:29.120Z,9.20
2019-02-09T19:31:18.029Z,9.20
2019-02-09T19:33:46.701Z,9.20
2019-02-09T19:36:15.316Z,9.20
2019-02-09T19:38:43.905Z,9.20
2019-02-09T19:41:12.480Z,9.30
2019-02-09T19:43:41.093Z,9.20
2019-02-09T19:46:09.670Z,9.20
2019-02-09T19:48:38.249Z,9.30
2019-02-09T19:51:06.840Z,9.20
2019-02-09T19:53:35.411Z,9.20
2019-02-09T19:56:03.999Z,9.20
2019-02-09T19:58:32.603Z,9.20
2019-02-09T20:01:01.261Z,9.20
2019-02-09T20:03:29.880Z,9.20
2019-02-09T20:05:58.483Z,9.20
2019-02-09T20:08:27.100Z,9.20
2019-02-09T20:10:55.695Z,9.20
2019-02-09T20:13:24.288Z,9.10
2019-02-09T20:15:52.935Z,9.10
2019-02-09T20:18:21.527Z,9.00
2019-02-09T20:20:50.264Z,9.00
2019-02-09T20:23:18.863Z,9.00
2019-02-09T20:25:47.593Z,9.00
2019-02-09T20:28:16.242Z,9.00
2019-02-09T20:30:44.860Z,9.10
2019-02-09T20:33:13.772Z,9.10
2019-02-09T20:35:42.655Z,9.00
2019-02-09T20:38:11.303Z,9.00
2019-02-09T20:40:42.545Z,9.10
2019-02-09T20:43:12.835Z,9.10
2019-02-09T20:45:41.420Z,9.10
2019-02-09T20:48:10.001Z,9.10
2019-02-09T20:50:38.603Z,9.10
2019-02-09T20:53:07.390Z,9.00
2019-02-09T20:55:35.989Z,9.00
2019-02-09T20:58:06.123Z,9.00
2019-02-09T21:00:34.731Z,9.00
2019-02-09T21:03:03.340Z,9.00
2019-02-09T21:05:36.446Z,8.90
2019-02-09T21:08:02.325Z,8.90
2019-02-09T21:10:31.581Z,8.90
2019-02-09T21:13:00.164Z,8.90
2019-02-09T21:15:28.806Z,8.90
2019-02-09T21:17:57.388Z,8.90
2019-02-09T21:20:26.010Z,8.90
2019-02-09T21:22:54.796Z,8.90
2019-02-09T21:25:25.756Z,8.90
2019-02-09T21:27:56.006Z,8.90
2019-02-09T21:33:57.208Z,8.80
2019-02-09T21:36:26.724Z,8.80
2019-02-09T21:38:58.004Z,8.80
2019-02-09T21:41:30.078Z,8.80
2019-02-09T21:44:05.143Z,8.80
2019-02-09T21:46:37.870Z,8.80
2019-02-09T21:49:12.758Z,8.80
2019-02-09T21:51:47.647Z,8.80
2019-02-09T21:54:16.363Z,8.80
2019-02-09T21:56:45.006Z,8.80
2019-02-09T21:59:13.745Z,8.80
2019-02-09T22:01:43.493Z,8.80
2019-02-09T22:04:12.115Z,8.80
2019-02-09T22:06:40.753Z,8.90
2019-02-09T22:09:09.424Z,8.90
2019-02-09T22:11:38.090Z,8.90
2019-02-09T22:14:06.774Z,8.90
2019-02-09T22:16:36.889Z,9.00
2019-02-09T22:19:05.617Z,9.00
2019-02-09T22:21:34.343Z,8.90
2019-02-09T22:24:03.051Z,8.90
2019-02-09T22:26:31.748Z,8.90
2019-02-09T22:29:00.330Z,8.90
2019-02-09T22:31:28.992Z,9.00
2019-02-09T22:33:57.630Z,9.00
2019-02-09T22:36:26.263Z,9.00
2019-02-09T22:38:54.835Z,8.90
2019-02-09T22:41:23.434Z,9.00
2019-02-09T22:43:52.068Z,9.00
2019-02-09T22:46:20.700Z,9.00
2019-02-09T22:48:49.520Z,9.00
2019-02-09T22:51:18.082Z,9.00
2019-02-09T22:53:52.279Z,9.00
2019-02-09T22:56:24.993Z,9.00
2019-02-09T22:58:55.703Z,9.00
2019-02-09T23:01:51.556Z,9.00
2019-02-09T23:04:43.033Z,9.00
2019-02-09T23:07:38.296Z,8.90
2019-02-09T23:10:10.625Z,8.90
2019-02-09T23:12:39.192Z,8.90
2019-02-09T23:15:08.528Z,8.90
2019-02-09T23:17:37.119Z,8.90
2019-02-09T23:20:07.203Z,8.90
2019-02-09T23:22:35.815Z,8.90
2019-02-09T23:25:04.789Z,8.90
2019-02-09T23:27:33.420Z,8.90
2019-02-09T23:30:02.009Z,8.90
2019-02-09T23:32:30.584Z,8.90
2019-02-09T23:34:59.501Z,8.90
2019-02-09T23:37:28.084Z,8.90
2019-02-09T23:39:57.104Z,8.80
2019-02-09T23:42:45.041Z,8.90
2019-02-09T23:45:13.811Z,8.80
2019-02-09T23:47:42.418Z,8.80
2019-02-09T23:50:11.021Z,8.80
2019-02-09T23:52:39.624Z,8.80
2019-02-09T23:55:08.309Z,8.80
2019-02-09T23:57:36.884Z,8.80
